Time;durP1;ratioP1;P1;durP2;ratioP2;P2;SDS_P1;SDS_P2;PMS_P1;PMS_P2;Temp;Humidity;BMP_temperature;BMP_pressure;BME280_temperature;BME280_humidity;BME280_pressure;Samples;Min_cycle;Max_cycle;Signal;HPM_P1;HPM_P2
2022/04/14 00:00:34;;;;;;;3.47;1.58;;;;;;;7.39;100.00;100229.44;7395166;19;20396;-54
2022/04/14 00:03:00;;;;;;;2.00;1.65;;;;;;;7.37;100.00;100229.09;7396746;19;20495;-54
2022/04/14 00:05:26;;;;;;;6.15;2.03;;;;;;;7.29;100.00;100233.34;7394971;19;20015;-55
2022/04/14 00:07:52;;;;;;;4.68;1.65;;;;;;;7.19;100.00;100230.91;7391814;19;20015;-54
2022/04/14 00:10:19;;;;;;;1.95;0.98;;;;;;;7.19;100.00;100239.97;7394191;19;20050;-55
2022/04/14 00:12:48;;;;;;;1.45;1.10;;;;;;;7.19;100.00;100239.22;7395212;19;20038;-54
2022/04/14 00:15:14;;;;;;;4.00;1.75;;;;;;;7.19;100.00;100237.19;7395008;19;20010;-55
2022/04/14 00:17:40;;;;;;;3.65;1.70;;;;;;;7.14;100.00;100237.78;7394838;19;20010;-54
2022/04/14 00:20:08;;;;;;;1.63;1.58;;;;;;;7.08;100.00;100244.31;7395335;19;20030;-54
2022/04/14 00:22:36;;;;;;;0.90;0.88;;;;;;;7.00;100.00;100243.72;7398747;19;20018;-54
2022/04/14 00:25:03;;;;;;;13.10;2.33;;;;;;;7.00;100.00;100249.25;7392970;19;20094;-54
2022/04/14 00:27:29;;;;;;;3.25;2.35;;;;;;;6.98;100.00;100248.16;7391986;19;20026;-54
2022/04/14 00:29:55;;;;;;;4.90;1.75;;;;;;;6.94;100.00;100253.81;7393220;19;20215;-54
2022/04/14 00:32:22;;;;;;;1.35;1.33;;;;;;;6.87;100.00;100256.78;7395343;19;20002;-54
2022/04/14 00:34:48;;;;;;;1.38;1.05;;;;;;;6.78;100.00;100249.13;7393241;19;20035;-54
2022/04/14 00:37:17;;;;;;;8.07;1.33;;;;;;;6.76;100.00;100256.31;7394138;19;20022;-54
2022/04/14 00:39:44;;;;;;;0.73;0.73;;;;;;;6.72;100.00;100250.88;7394243;19;20357;-54
2022/04/14 00:42:11;;;;;;;7.30;3.42;;;;;;;6.69;100.00;100259.31;7393865;19;20006;-54
2022/04/14 00:44:38;;;;;;;2.72;1.48;;;;;;;6.66;100.00;100260.16;7392946;19;20007;-54
2022/04/14 00:47:05;;;;;;;3.90;1.52;;;;;;;6.70;100.00;100255.31;7392029;19;20356;-54
2022/04/14 00:49:32;;;;;;;3.20;1.85;;;;;;;6.72;100.00;100263.94;7394149;19;20337;-54
2022/04/14 00:52:00;;;;;;;3.67;1.85;;;;;;;6.78;100.00;100251.88;7396532;19;20023;-54
2022/04/14 00:54:30;;;;;;;8.77;2.13;;;;;;;6.83;100.00;100256.09;7391141;19;20541;-54
2022/04/14 00:57:01;;;;;;;7.40;2.10;;;;;;;6.78;100.00;100253.88;7393547;19;20038;-54
2022/04/14 00:59:29;;;;;;;3.05;1.70;;;;;;;6.76;100.00;100256.31;7393225;19;20018;-54
2022/04/14 01:01:56;;;;;;;1.88;1.45;;;;;;;6.78;100.00;100264.94;7391861;19;20022;-54
2022/04/14 01:04:23;;;;;;;3.45;1.50;;;;;;;6.74;100.00;100253.19;7390380;19;20015;-54
2022/04/14 01:06:50;;;;;;;2.55;1.42;;;;;;;6.73;100.00;100251.66;7391235;19;20014;-54
2022/04/14 01:09:18;;;;;;;3.95;1.98;;;;;;;6.72;100.00;100244.56;7393236;19;20474;-55
2022/04/14 01:11:49;;;;;;;1.05;0.80;;;;;;;6.65;100.00;100247.53;7390859;19;20010;-54
2022/04/14 01:14:26;;;;;;;4.90;1.27;;;;;;;6.65;100.00;100250.28;7392430;19;20094;-54
2022/04/14 01:16:56;;;;;;;2.78;1.45;;;;;;;6.64;100.00;100249.53;7392803;19;20015;-54
2022/04/14 01:19:23;;;;;;;9.63;1.70;;;;;;;6.60;100.00;100251.66;7390662;19;20363;-54
2022/04/14 01:22:12;;;;;;;0.77;0.77;;;;;;;6.54;100.00;100252.63;7394356;19;20363;-54
2022/04/14 01:24:41;;;;;;;1.88;1.77;;;;;;;6.49;100.00;100244.84;7393071;19;20365;-53
2022/04/14 01:27:08;;;;;;;17.80;2.78;;;;;;;6.51;100.00;100248.72;7392328;19;20022;-53
2022/04/14 01:29:35;;;;;;;0.82;0.82;;;;;;;6.51;100.00;100245.19;7393506;19;20458;-54
2022/04/14 01:32:02;;;;;;;5.30;1.77;;;;;;;6.44;100.00;100239.84;7391786;19;20011;-53
2022/04/14 01:34:30;;;;;;;8.27;1.63;;;;;;;6.47;100.00;100238.97;7391490;19;20035;-54
2022/04/14 01:36:57;;;;;;;3.50;1.17;;;;;;;6.43;100.00;100243.84;7390203;19;20006;-54
2022/04/14 01:39:24;;;;;;;2.00;0.93;;;;;;;6.37;100.00;100243.59;7390846;19;20026;-53
2022/04/14 01:41:50;;;;;;;1.25;0.77;;;;;;;6.34;100.00;100240.94;7391060;19;20620;-54
2022/04/14 01:44:17;;;;;;;4.97;1.98;;;;;;;6.31;100.00;100247.31;7391695;19;20025;-54
2022/04/14 01:46:43;;;;;;;2.63;1.45;;;;;;;6.28;100.00;100248.22;7395404;19;20042;-53
2022/04/14 01:49:09;;;;;;;1.65;1.48;;;;;;;6.30;100.00;100248.56;7391212;19;20011;-53
2022/04/14 01:51:37;;;;;;;2.20;1.15;;;;;;;6.24;100.00;100242.00;7394325;19;20651;-53
2022/04/14 01:54:04;;;;;;;3.38;2.08;;;;;;;6.18;100.00;100252.81;7393088;19;20009;-54
2022/04/14 01:56:30;;;;;;;2.88;1.38;;;;;;;6.13;100.00;100252.56;7393733;19;20447;-54
2022/04/14 01:58:57;;;;;;;3.65;0.95;;;;;;;6.09;100.00;100245.13;7395188;19;20463;-54
2022/04/14 02:01:23;;;;;;;8.88;1.27;;;;;;;6.15;100.00;100258.44;7393782;19;20019;-54
2022/04/14 02:03:50;;;;;;;0.75;0.63;;;;;;;6.08;100.00;100257.44;7392657;19;20570;-53
2022/04/14 02:06:16;;;;;;;5.07;1.70;;;;;;;6.06;100.00;100257.06;7394138;19;20017;-53
2022/04/14 02:08:43;;;;;;;2.30;1.65;;;;;;;6.04;100.00;100256.72;7394805;19;20377;-53
2022/04/14 02:11:10;;;;;;;1.35;0.82;;;;;;;6.01;100.00;100257.59;7390783;19;20372;-53
2022/04/14 02:13:37;;;;;;;1.33;1.05;;;;;;;5.95;100.00;100264.88;7390693;19;20047;-53
2022/04/14 02:16:04;;;;;;;2.05;1.23;;;;;;;5.96;100.00;100262.88;7390568;19;20015;-53
2022/04/14 02:18:30;;;;;;;11.52;1.95;;;;;;;5.92;100.00;100260.19;7389325;19;20007;-53
2022/04/14 02:20:57;;;;;;;3.55;1.70;;;;;;;5.91;100.00;100266.94;7392188;19;20046;-54
2022/04/14 02:23:23;;;;;;;2.55;1.42;;;;;;;5.83;100.00;100273.81;7390154;19;20045;-54
2022/04/14 02:25:50;;;;;;;1.00;0.82;;;;;;;5.80;100.00;100271.16;7391394;19;20475;-54
2022/04/14 02:28:16;;;;;;;1.42;1.35;;;;;;;5.82;100.00;100266.75;7388656;19;20810;-54
2022/04/14 02:30:42;;;;;;;0.82;0.82;;;;;;;5.81;100.00;100270.72;7389987;19;20023;-54
2022/04/14 02:33:09;;;;;;;0.85;0.85;;;;;;;5.76;100.00;100276.75;7388549;19;20021;-54
2022/04/14 02:35:35;;;;;;;0.82;0.75;;;;;;;5.76;100.00;100276.00;7392756;19;20032;-54
2022/04/14 02:40:45;;;;;;;2.40;2.22;;;;;;;5.73;100.00;100274.88;7389858;19;20018;-54
2022/04/14 02:43:12;;;;;;;1.60;1.50;;;;;;;5.68;100.00;100278.16;7388048;19;20398;-54
2022/04/14 02:45:38;;;;;;;4.35;1.02;;;;;;;5.67;100.00;100275.81;7390907;19;20344;-54
2022/04/14 02:48:04;;;;;;;7.10;1.88;;;;;;;5.68;100.00;100282.88;7387808;19;20006;-54
2022/04/14 02:50:30;;;;;;;7.60;1.38;;;;;;;5.65;100.00;100276.25;7389717;19;20014;-54
2022/04/14 02:52:57;;;;;;;1.58;1.48;;;;;;;5.66;100.00;100275.03;7389337;19;20113;-54
2022/04/14 02:55:23;;;;;;;1.90;1.52;;;;;;;5.63;100.00;100275.13;7389444;19;20351;-54
2022/04/14 02:57:49;;;;;;;2.25;1.45;;;;;;;5.67;100.00;100271.09;7393226;19;20015;-54
2022/04/14 03:00:16;;;;;;;3.63;1.70;;;;;;;5.67;100.00;100271.09;7390129;19;20017;-54
2022/04/14 03:02:42;;;;;;;2.17;1.95;;;;;;;5.65;100.00;100278.25;7388979;19;20024;-54
2022/04/14 03:05:10;;;;;;;5.97;2.05;;;;;;;5.59;100.00;100274.47;7388838;19;20438;-54
2022/04/14 03:07:37;;;;;;;2.33;2.00;;;;;;;5.60;100.00;100278.75;7387813;19;20006;-53
2022/04/14 03:10:04;;;;;;;1.33;1.02;;;;;;;5.65;100.00;100278.25;7389109;19;20019;-54
2022/04/14 03:12:41;;;;;;;6.05;2.55;;;;;;;5.63;100.00;100275.13;7390588;19;20007;-54
2022/04/14 03:15:07;;;;;;;3.30;2.05;;;;;;;5.57;100.00;100288.69;7388374;19;20006;-54
2022/04/14 03:17:33;;;;;;;4.20;1.83;;;;;;;5.56;100.00;100270.56;7389154;19;20477;-54
2022/04/14 03:19:59;;;;;;;2.38;2.28;;;;;;;5.51;100.00;100268.31;7389426;19;20074;-54
2022/04/14 03:22:25;;;;;;;3.13;2.00;;;;;;;5.49;100.00;100273.50;7392293;19;20602;-54
2022/04/14 03:24:55;;;;;;;5.05;1.73;;;;;;;5.59;100.00;100272.44;7388883;19;20401;-54
2022/04/14 03:27:21;;;;;;;0.98;0.98;;;;;;;5.55;100.00;100269.00;7394038;19;20014;-54
2022/04/14 03:29:47;;;;;;;2.95;2.45;;;;;;;5.54;100.00;100266.69;7396674;19;20026;-54
2022/04/14 03:32:13;;;;;;;8.57;1.45;;;;;;;5.45;100.00;100264.50;7396165;19;20018;-54
2022/04/14 03:34:39;;;;;;;0.85;0.80;;;;;;;5.40;100.00;100253.97;7394590;19;20015;-54
2022/04/14 03:37:06;;;;;;;1.35;1.25;;;;;;;5.34;100.00;100263.97;7394803;19;20014;-54
2022/04/14 03:39:32;;;;;;;1.55;1.23;;;;;;;5.40;100.00;100262.25;7395741;19;20161;-54
2022/04/14 03:41:58;;;;;;;2.72;1.90;;;;;;;5.35;100.00;100276.56;7395537;19;20403;-54
2022/04/14 03:44:24;;;;;;;1.15;1.15;;;;;;;5.35;100.00;100287.63;7395614;19;20018;-54
2022/04/14 03:46:50;;;;;;;1.67;1.58;;;;;;;5.39;100.00;100278.03;7394918;19;20030;-54
2022/04/14 03:49:16;;;;;;;1.48;1.35;;;;;;;5.42;100.00;100276.41;7394914;19;20070;-54
2022/04/14 03:51:42;;;;;;;0.80;0.80;;;;;;;5.51;100.00;100273.84;7398529;19;20015;-54
2022/04/14 03:54:09;;;;;;;6.90;3.15;;;;;;;5.56;100.00;100275.31;7395005;19;20031;-54
2022/04/14 03:56:35;;;;;;;2.30;2.10;;;;;;;5.64;100.00;100283.00;7394439;19;20014;-54
2022/04/14 03:59:01;;;;;;;1.75;1.52;;;;;;;5.66;100.00;100288.84;7395197;19;20072;-54
2022/04/14 04:01:27;;;;;;;2.75;2.10;;;;;;;5.68;100.00;100291.97;7394361;19;20479;-54
2022/04/14 04:03:53;;;;;;;1.13;1.13;;;;;;;5.66;100.00;100302.66;7394797;19;20022;-54
2022/04/14 04:06:19;;;;;;;1.13;1.13;;;;;;;5.64;100.00;100309.84;7394665;19;20082;-54
2022/04/14 04:08:45;;;;;;;1.92;1.80;;;;;;;5.65;100.00;100300.34;7397587;19;20040;-54
2022/04/14 04:11:11;;;;;;;2.45;1.38;;;;;;;5.64;100.00;100305.09;7393295;19;20455;-54
2022/04/14 04:13:38;;;;;;;2.28;1.65;;;;;;;5.65;100.00;100301.09;7393675;19;20018;-54
2022/04/14 04:16:04;;;;;;;1.20;1.15;;;;;;;5.55;100.00;100302.16;7395402;19;20364;-54
2022/04/14 04:18:33;;;;;;;2.85;1.48;;;;;;;5.46;100.00;100301.97;7394436;19;20079;-54
2022/04/14 04:20:59;;;;;;;2.42;1.55;;;;;;;5.47;100.00;100300.75;7396303;19;20003;-54
2022/04/14 04:23:25;;;;;;;4.68;2.33;;;;;;;5.45;100.00;100303.19;7393848;19;20498;-54
2022/04/14 04:25:51;;;;;;;1.23;1.17;;;;;;;5.45;100.00;100307.91;7392386;19;20014;-54
2022/04/14 04:28:17;;;;;;;2.05;1.33;;;;;;;5.43;100.00;100305.59;7396122;19;20448;-54
2022/04/14 04:30:44;;;;;;;1.73;1.63;;;;;;;5.39;100.00;100302.16;7395728;19;20011;-54
2022/04/14 04:33:10;;;;;;;2.40;1.38;;;;;;;5.38;100.00;100309.63;7392728;19;20043;-54
2022/04/14 04:35:36;;;;;;;2.20;1.83;;;;;;;5.37;100.00;100318.38;7394770;19;20101;-54
2022/04/14 04:38:02;;;;;;;5.47;1.45;;;;;;;5.33;100.00;100317.63;7390036;19;20113;-54
2022/04/14 04:40:28;;;;;;;1.35;1.25;;;;;;;5.35;100.00;100318.00;7393541;19;20017;-54
2022/04/14 04:42:54;;;;;;;2.72;1.75;;;;;;;5.29;100.00;100308.66;7393899;19;20011;-54
2022/04/14 04:45:20;;;;;;;9.20;1.90;;;;;;;5.29;100.00;100322.47;7393548;19;20007;-54
2022/04/14 04:47:46;;;;;;;1.85;1.15;;;;;;;5.22;100.00;100306.84;7390290;19;20010;-54
2022/04/14 04:50:13;;;;;;;1.77;1.67;;;;;;;5.20;100.00;100302.94;7393128;19;20015;-54
2022/04/14 04:52:39;;;;;;;1.55;1.42;;;;;;;5.22;100.00;100308.81;7395754;19;20604;-54
2022/04/14 04:55:05;;;;;;;1.48;1.38;;;;;;;5.14;100.00;100310.19;7393346;19;20025;-54
2022/04/14 04:57:32;;;;;;;3.10;1.23;;;;;;;5.09;100.00;100313.47;7392446;19;20047;-54
2022/04/14 04:59:58;;;;;;;2.67;1.75;;;;;;;5.10;100.00;100309.47;7393001;19;20014;-54
2022/04/14 05:02:24;;;;;;;1.88;1.55;;;;;;;5.13;100.00;100314.91;7392922;19;20471;-54
2022/04/14 05:04:50;;;;;;;1.58;1.42;;;;;;;5.17;100.00;100314.84;7392607;19;20021;-54
2022/04/14 05:07:16;;;;;;;1.30;1.13;;;;;;;5.22;100.00;100306.06;7391459;19;20010;-54
2022/04/14 05:09:42;;;;;;;4.25;1.90;;;;;;;5.23;100.00;100296.56;7393139;19;20022;-54
2022/04/14 05:12:09;;;;;;;2.20;1.92;;;;;;;5.27;100.00;100298.06;7391459;19;20020;-54
2022/04/14 05:14:35;;;;;;;4.50;1.67;;;;;;;5.31;100.00;100287.69;7391873;19;20007;-54
2022/04/14 05:17:02;;;;;;;1.10;1.10;;;;;;;5.35;100.00;100287.63;7392362;19;20018;-54
2022/04/14 05:19:28;;;;;;;1.58;1.17;;;;;;;5.33;100.00;100287.25;7392735;19;20028;-54
2022/04/14 05:21:54;;;;;;;4.53;0.93;;;;;;;5.48;100.00;100290.50;7395359;19;20010;-54
2022/04/14 05:24:21;;;;;;;1.33;1.08;;;;;;;5.57;100.00;100294.19;7392709;19;20017;-54
2022/04/14 05:26:47;;;;;;;3.47;1.00;;;;;;;5.60;100.00;100295.34;7391830;19;20052;-54
2022/04/14 05:29:13;;;;;;;3.53;1.77;;;;;;;5.70;100.00;100300.59;7391745;19;20341;-54
2022/04/14 05:31:39;;;;;;;3.83;1.95;;;;;;;5.71;100.00;100306.91;7388462;19;20007;-54
2022/04/14 05:34:05;;;;;;;2.53;1.23;;;;;;;5.70;100.00;100313.63;7391855;19;20370;-54
2022/04/14 05:36:31;;;;;;;3.75;1.02;;;;;;;5.69;100.00;100312.88;7392148;19;20015;-54
2022/04/14 05:38:58;;;;;;;2.78;2.53;;;;;;;5.59;100.00;100311.13;7391188;19;20018;-54
2022/04/14 05:41:24;;;;;;;31.15;2.80;;;;;;;5.85;100.00;100312.88;7391518;19;20010;-54
2022/04/14 05:43:50;;;;;;;8.20;3.30;;;;;;;5.96;100.00;100321.69;7391070;19;20015;-54
2022/04/14 05:46:16;;;;;;;6.30;2.97;;;;;;;6.04;100.00;100323.06;7391627;19;20030;-54
2022/04/14 05:48:42;;;;;;;8.80;4.40;;;;;;;6.15;100.00;100317.25;7388789;19;20071;-54
2022/04/14 05:51:08;;;;;;;9.65;2.08;;;;;;;6.15;100.00;100333.09;7392351;19;20011;-54
2022/04/14 05:53:35;;;;;;;5.35;2.35;;;;;;;6.25;100.00;100329.28;7390194;19;20010;-54
2022/04/14 05:56:01;;;;;;;2.38;2.17;;;;;;;6.25;100.00;100338.34;7390515;19;20088;-54
2022/04/14 05:58:27;;;;;;;8.57;2.03;;;;;;;6.31;100.00;100341.34;7389898;19;20010;-54
2022/04/14 06:00:54;;;;;;;1.63;1.52;;;;;;;6.39;100.00;100337.22;7390184;19;20018;-54
2022/04/14 06:03:20;;;;;;;5.63;1.60;;;;;;;6.46;100.00;100337.78;7388351;19;20035;-54
2022/04/14 06:05:46;;;;;;;4.10;2.22;;;;;;;6.55;100.00;100334.41;7391164;19;20484;-54
2022/04/14 06:08:12;;;;;;;3.17;1.63;;;;;;;6.54;100.00;100332.84;7387037;19;20045;-54
2022/04/14 06:10:38;;;;;;;1.55;1.50;;;;;;;6.52;100.00;100336.03;7390917;19;20011;-55
2022/04/14 06:13:05;;;;;;;5.28;1.98;;;;;;;6.57;100.00;100329.97;7390547;19;20022;-54
2022/04/14 06:15:31;;;;;;;1.33;1.15;;;;;;;6.65;100.00;100336.09;7388018;19;20074;-55
2022/04/14 06:17:58;;;;;;;2.92;2.45;;;;;;;6.73;100.00;100343.00;7390964;19;20036;-55
2022/04/14 06:20:24;;;;;;;2.45;1.63;;;;;;;6.78;100.00;100347.97;7391116;19;20074;-55
2022/04/14 06:22:52;;;;;;;2.75;1.92;;;;;;;6.80;100.00;100351.09;7389979;19;20562;-54
2022/04/14 06:25:22;;;;;;;5.72;2.22;;;;;;;6.86;100.00;100349.34;7389713;19;20035;-54
2022/04/14 06:27:52;;;;;;;12.20;2.92;;;;;;;6.89;100.00;100354.78;7389310;19;20036;-54
2022/04/14 06:30:19;;;;;;;7.47;2.92;;;;;;;7.01;100.00;100356.03;7388203;19;20017;-55
2022/04/14 06:32:59;;;;;;;10.52;3.50;;;;;;;7.15;100.00;100358.38;7385914;19;20090;-78
2022/04/14 06:35:26;;;;;;;1.42;1.42;;;;;;;7.23;100.00;100351.44;7384105;19;20018;-80
2022/04/14 06:37:53;;;;;;;2.67;1.90;;;;;;;7.32;100.00;100359.09;7382748;19;20022;-78
2022/04/14 06:40:21;;;;;;;3.25;2.08;;;;;;;7.44;100.00;100364.66;7385228;19;20018;-78
2022/04/14 06:42:48;;;;;;;7.15;3.17;;;;;;;7.52;100.00;100363.22;7387047;19;20044;-78
2022/04/14 06:45:15;;;;;;;6.97;1.83;;;;;;;7.58;100.00;100372.53;7386897;19;20029;-78
2022/04/14 06:47:41;;;;;;;2.92;2.58;;;;;;;7.60;100.00;100381.19;7385509;19;20501;-78
2022/04/14 06:50:08;;;;;;;8.30;1.52;;;;;;;7.65;100.00;100377.06;7384322;19;20023;-80
2022/04/14 06:52:36;;;;;;;5.75;2.50;;;;;;;7.74;100.00;100373.66;7389045;19;20086;-79
2022/04/14 06:55:02;;;;;;;3.80;2.25;;;;;;;7.85;100.00;100376.84;7386814;19;20018;-78
2022/04/14 06:57:28;;;;;;;6.88;1.58;;;;;;;7.90;100.00;100377.09;7386063;19;20021;-78
2022/04/14 06:59:54;;;;;;;7.45;1.80;;;;;;;7.98;100.00;100377.63;7382616;19;20019;-78
2022/04/14 07:02:20;;;;;;;5.07;2.05;;;;;;;8.07;100.00;100384.06;7383991;19;20017;-78
2022/04/14 07:04:46;;;;;;;3.38;3.08;;;;;;;8.25;100.00;100383.50;7384053;19;20015;-78
2022/04/14 07:07:12;;;;;;;3.45;2.03;;;;;;;8.40;100.00;100392.94;7385355;19;20658;-78
2022/04/14 07:09:39;;;;;;;4.43;1.92;;;;;;;8.56;100.00;100389.19;7384206;19;20022;-78
2022/04/14 07:12:06;;;;;;;6.82;2.03;;;;;;;8.67;100.00;100395.94;7389535;19;20026;-79
2022/04/14 07:14:33;;;;;;;12.60;2.63;;;;;;;8.83;100.00;100398.56;7385763;19;20057;-79
2022/04/14 07:17:00;;;;;;;5.35;2.83;;;;;;;8.94;100.00;100392.63;7385944;19;20058;-79
2022/04/14 07:19:26;;;;;;;5.88;2.50;;;;;;;9.08;100.00;100397.66;7383337;19;20048;-79
2022/04/14 07:21:53;;;;;;;9.52;2.13;;;;;;;9.21;100.00;100395.59;7386367;19;20014;-78
2022/04/14 07:24:20;;;;;;;9.18;3.00;;;;;;;9.35;100.00;100410.97;7390538;19;20018;-79
2022/04/14 07:26:46;;;;;;;8.10;2.42;;;;;;;9.52;100.00;100409.53;7385794;19;20377;-80
2022/04/14 07:29:12;;;;;;;4.30;1.60;;;;;;;9.66;100.00;100411.75;7385110;19;20129;-78
2022/04/14 07:31:41;;;;;;;3.70;2.15;;;;;;;9.80;100.00;100408.44;7389189;19;20032;-89
2022/04/14 07:34:10;;;;;;;7.95;2.97;;;;;;;10.02;100.00;100408.38;7394868;19;20018;-89
2022/04/14 07:36:37;;;;;;;7.63;2.83;;;;;;;10.22;100.00;100412.31;7391296;19;20014;-89
2022/04/14 07:39:04;;;;;;;5.65;2.60;;;;;;;10.42;100.00;100411.91;7391942;19;20672;-89
2022/04/14 07:41:31;;;;;;;7.72;2.72;;;;;;;10.66;100.00;100402.53;7393224;19;20019;-89
2022/04/14 07:43:58;;;;;;;4.95;2.28;;;;;;;10.84;100.00;100407.34;7395191;19;20045;-89
2022/04/14 07:46:24;;;;;;;13.02;3.50;;;;;;;11.08;100.00;100401.91;7392183;19;20011;-88
2022/04/14 07:48:50;;;;;;;13.80;2.05;;;;;;;11.28;100.00;100407.78;7390805;19;20019;-88
2022/04/14 07:51:16;;;;;;;11.95;2.95;;;;;;;11.38;100.00;100406.53;7392256;19;20019;-88
2022/04/14 07:53:42;;;;;;;3.47;2.78;;;;;;;11.52;100.00;100405.09;7394280;19;20013;-88
2022/04/14 07:56:08;;;;;;;5.82;2.40;;;;;;;11.64;100.00;100402.13;7394047;19;20015;-87
2022/04/14 07:58:37;;;;;;;5.13;2.38;;;;;;;11.89;100.00;100407.31;7393299;19;20375;-88
2022/04/14 08:01:03;;;;;;;5.35;3.13;;;;;;;12.06;100.00;100400.13;7392082;19;20010;-87
2022/04/14 08:03:29;;;;;;;7.03;2.75;;;;;;;12.17;100.00;100396.84;7391247;19;20014;-86
2022/04/14 08:05:55;;;;;;;8.57;3.22;;;;;;;12.27;100.00;100403.91;7393294;19;20360;-88
2022/04/14 08:08:23;;;;;;;24.13;4.10;;;;;;;12.31;100.00;100406.50;7389414;19;20097;-88
2022/04/14 08:10:49;;;;;;;3.92;1.77;;;;;;;12.46;100.00;100404.56;7393816;19;20011;-88
2022/04/14 08:13:17;;;;;;;6.35;2.10;;;;;;;12.58;100.00;100406.38;7393865;19;20031;-88
2022/04/14 08:15:44;;;;;;;2.10;1.95;;;;;;;12.78;100.00;100403.72;7394891;19;20018;-88
2022/04/14 08:18:10;;;;;;;16.10;3.22;;;;;;;12.91;100.00;100393.06;7398183;19;20035;-89
2022/04/14 08:20:40;;;;;;;4.30;2.05;;;;;;;13.08;100.00;100408.16;7398132;19;20003;-89
2022/04/14 08:23:11;;;;;;;6.35;2.65;;;;;;;13.25;100.00;100403.69;7400235;19;20015;-88
2022/04/14 08:25:38;;;;;;;3.42;1.77;;;;;;;13.43;100.00;100409.06;7401111;19;20018;-88
2022/04/14 08:28:07;;;;;;;4.65;2.10;;;;;;;13.52;100.00;100406.19;7393918;19;20014;-87
2022/04/14 08:30:36;;;;;;;4.78;1.85;;;;;;;13.60;100.00;100404.53;7394806;19;20010;-87
2022/04/14 08:33:12;;;;;;;3.33;1.15;;;;;;;13.88;100.00;100399.41;7395073;19;20018;-88
2022/04/14 08:35:39;;;;;;;2.92;2.08;;;;;;;14.05;100.00;100400.44;7400252;19;20070;-88
2022/04/14 08:38:06;;;;;;;4.72;1.67;;;;;;;14.19;100.00;100396.06;7399034;19;20029;-87
2022/04/14 08:40:38;;;;;;;5.95;1.92;;;;;;;14.39;100.00;100401.72;7395844;19;20530;-87
2022/04/14 08:43:06;;;;;;;2.15;1.20;;;;;;;14.55;100.00;100395.59;7397740;19;20469;-87
2022/04/14 08:45:34;;;;;;;1.27;0.60;;;;;;;14.75;100.00;100400.44;7397759;19;20006;-88
2022/04/14 08:48:03;;;;;;;2.15;0.95;;;;;;;14.90;100.00;100393.44;7394926;19;20017;-87
2022/04/14 08:50:31;;;;;;;0.77;0.65;;;;;;;15.05;100.00;100396.19;7393723;19;20070;-88
2022/04/14 08:52:57;;;;;;;1.88;0.60;;;;;;;15.15;100.00;100398.34;7396108;19;20014;-88
2022/04/14 08:55:24;;;;;;;0.40;0.30;;;;;;;15.37;100.00;100394.22;7393754;19;20374;-84
2022/04/14 08:57:51;;;;;;;0.65;0.65;;;;;;;15.39;100.00;100400.09;7397296;19;20014;-88
2022/04/14 09:00:17;;;;;;;0.95;0.60;;;;;;;15.45;100.00;100395.34;7396792;19;20350;-88
2022/04/14 09:02:50;;;;;;;2.58;0.82;;;;;;;15.52;100.00;100403.31;7397221;19;20069;-88
2022/04/14 09:05:17;;;;;;;1.23;0.60;;;;;;;15.72;100.00;100392.03;7397731;19;20493;-87
2022/04/14 09:07:50;;;;;;;1.20;0.90;;;;;;;15.82;100.00;100390.56;7397090;19;20031;-88
2022/04/14 09:10:18;;;;;;;6.20;0.75;;;;;;;15.94;100.00;100400.59;7395939;19;20048;-88
2022/04/14 09:12:45;;;;;;;1.30;0.60;;;;;;;15.95;100.00;100402.16;7398789;19;20010;-88
2022/04/14 09:15:11;;;;;;;1.10;0.77;;;;;;;16.03;100.00;100397.63;7395235;19;20021;-88
2022/04/14 09:17:37;;;;;;;0.77;0.47;;;;;;;16.05;100.00;100397.13;7387429;19;20023;-89
2022/04/14 09:20:33;;;;;;;0.95;0.50;;;;;;;16.17;100.00;100399.53;7384094;19;20381;-88
2022/04/14 09:23:15;;;;;;;2.53;0.32;;;;;;;16.43;100.00;100403.00;7385318;19;20043;-89
2022/04/14 09:25:43;;;;;;;2.25;1.05;;;;;;;16.44;100.00;100410.16;7387466;19;20485;-89
2022/04/14 09:28:15;;;;;;;0.10;0.10;;;;;;;16.48;100.00;100413.50;7388986;19;20018;-90
2022/04/14 09:31:02;;;;;;;1.42;1.05;;;;;;;16.36;100.00;100403.47;7386603;19;20025;-81
2022/04/14 09:33:29;;;;;;;1.40;0.52;;;;;;;16.37;100.00;100407.81;7386468;19;20011;-79
2022/04/14 09:36:09;;;;;;;0.90;0.55;;;;;;;16.45;100.00;100394.84;7385152;19;20981;-80
2022/04/14 09:38:58;;;;;;;0.63;0.38;;;;;;;16.62;100.00;100395.72;7385268;19;20025;-80
2022/04/14 09:41:39;;;;;;;0.15;0.13;;;;;;;16.76;100.00;100401.66;7384728;19;20408;-81
2022/04/14 09:44:10;;;;;;;1.63;0.45;;;;;;;16.83;100.00;100412.44;7385072;19;20021;-84
2022/04/14 09:46:46;;;;;;;1.67;0.73;;;;;;;17.00;100.00;100411.19;7387831;19;20489;-83
2022/04/14 09:49:17;;;;;;;1.10;0.95;;;;;;;17.11;100.00;100416.09;7384399;19;20019;-81
2022/04/14 09:51:48;;;;;;;0.73;0.28;;;;;;;17.06;100.00;100419.69;7388988;19;20014;-81
2022/04/14 09:54:17;;;;;;;1.00;0.17;;;;;;;17.05;100.00;100423.75;7389904;19;20022;-82
2022/04/14 09:59:48;;;;;;;1.95;0.57;;;;;;;17.11;100.00;100427.34;7392406;19;20066;-59
2022/04/14 10:02:16;;;;;;;3.53;1.02;;;;;;;17.22;100.00;100421.75;7400606;19;20010;-58
2022/04/14 10:04:47;;;;;;;3.03;0.35;;;;;;;17.36;100.00;100421.56;7395783;19;20093;-59
2022/04/14 10:07:17;;;;;;;;;;;;;;;17.55;100.00;100433.13;7393895;19;20014;-59
2022/04/14 10:09:48;;;;;;;1.70;0.28;;;;;;;17.64;100.00;100424.44;7390942;19;19910;-59
2022/04/14 10:12:17;;;;;;;1.52;0.45;;;;;;;17.86;100.00;100424.47;7388723;19;20003;-57
2022/04/14 10:14:55;;;;;;;1.05;0.65;;;;;;;18.11;100.00;100423.41;7389785;19;20023;-57
2022/04/14 10:17:26;;;;;;;0.65;0.30;;;;;;;18.28;100.00;100425.47;7388890;19;20018;-57
2022/04/14 10:19:53;;;;;;;1.48;0.30;;;;;;;18.46;100.00;100436.22;7393352;19;20388;-57
2022/04/14 10:22:19;;;;;;;0.90;0.35;;;;;;;18.58;100.00;100432.09;7391210;19;20018;-57
2022/04/14 10:24:47;;;;;;;1.08;0.43;;;;;;;18.73;100.00;100438.19;7392370;19;20014;-57
2022/04/14 10:27:15;;;;;;;0.43;0.30;;;;;;;18.77;100.00;100436.66;7389233;19;20010;-57
2022/04/14 10:29:41;;;;;;;1.05;0.40;;;;;;;18.78;100.00;100431.75;7390670;19;20027;-57
2022/04/14 10:32:08;;;;;;;1.45;0.28;;;;;;;18.82;100.00;100435.06;7388921;19;20352;-57
2022/04/14 10:34:34;;;;;;;0.98;0.50;;;;;;;18.85;100.00;100436.88;7387013;19;20014;-57
2022/04/14 10:37:02;;;;;;;0.50;0.30;;;;;;;18.85;100.00;100434.81;7391949;19;20022;-57
2022/04/14 10:39:31;;;;;;;1.08;0.47;;;;;;;18.95;100.00;100443.00;7390933;19;20003;-57
2022/04/14 10:42:00;;;;;;;0.25;0.17;;;;;;;18.95;100.00;100440.91;7392581;19;20033;-57
2022/04/14 10:44:44;;;;;;;1.42;0.40;;;;;;;18.96;100.00;100434.00;7391714;19;20366;-57
2022/04/14 10:47:10;;;;;;;0.85;0.30;;;;;;;18.88;100.00;100442.22;7391173;19;20014;-57
2022/04/14 10:49:40;;;;;;;0.68;0.28;;;;;;;18.81;100.00;100439.19;7391063;19;20010;-57
2022/04/14 10:52:23;;;;;;;0.45;0.20;;;;;;;18.73;100.00;100429.75;7390113;19;20558;-57
2022/04/14 10:55:00;;;;;;;0.57;0.20;;;;;;;18.69;100.00;100432.81;7392510;19;20014;-57
2022/04/14 10:57:36;;;;;;;0.20;0.20;;;;;;;18.80;100.00;100432.78;7391925;19;20030;-57
2022/04/14 11:00:32;;;;;;;1.08;0.10;;;;;;;18.83;100.00;100431.75;7391544;19;20015;-57
2022/04/14 11:03:08;;;;;;;0.82;0.20;;;;;;;18.90;100.00;100431.22;7391088;19;20006;-57
2022/04/14 11:05:43;;;;;;;1.30;0.50;;;;;;;18.96;100.00;100436.06;7389593;19;20074;-57
2022/04/14 11:08:30;;;;;;;2.30;0.17;;;;;;;19.09;100.00;100431.38;7387975;19;20427;-57
2022/04/14 11:11:11;;;;;;;1.48;0.15;;;;;;;19.18;100.00;100425.44;7390991;19;20010;-57
2022/04/14 11:13:53;;;;;;;;;;;;;;;19.30;100.00;100435.38;7390862;19;20020;-57
2022/04/14 11:16:41;;;;;;;0.68;0.30;;;;;;;19.44;100.00;100434.31;7389385;19;19915;-57
2022/04/14 11:19:26;;;;;;;0.90;0.30;;;;;;;19.56;100.00;100434.97;7391006;19;20021;-57
2022/04/14 11:22:01;;;;;;;8.98;0.40;;;;;;;19.40;100.00;100433.03;7390740;19;20007;-57
2022/04/14 11:24:37;;;;;;;0.10;0.10;;;;;;;19.18;100.00;100436.72;7390398;19;20014;-57
2022/04/14 11:27:17;;;;;;;0.57;0.25;;;;;;;19.00;100.00;100447.84;7390119;19;20003;-57
2022/04/14 11:29:45;;;;;;;0.85;0.30;;;;;;;18.81;100.00;100450.47;7390711;19;20014;-60
2022/04/14 11:32:15;;;;;;;0.47;0.20;;;;;;;18.61;100.00;100440.28;7391848;19;20074;-57